Charlottesville (CHO/KCHO)

Map

Destinations

Information

Location
Charlottesville, VA
Local Time
00:27 / 12:27 am
GMT Time
05:27 / 5:27 am
Gates
Unassigned
No FAA reported delays
METAR KCHO 260453Z AUTO 30005KT 10SM CLR 06/M07 A2987 RMK AO2 SLP111 T00611067 402390061
TAF KCHO 252331Z 2600/2624 29012G22KT P6SM FEW250 FM260300 28010G22KT P6SM FEW250 FM260500 27008KT P6SM FEW250
  • No charts available